Weather at Abington Memorial Hospital Heliport

Public forecast

Using degrees Fahrenheit for public forecast. Weather courtesy of forecast.io.

Closest aviation weather report (METAR) to Abington Memorial Hospital Heliport

Closest report is Willow Grove Naval Air Station/Joint Reserve Base, 5.0 nm (9.3 km) NNW. Retrieved UTC (0 seconds ago):

Closest aviation forecast (TAF) to Abington Memorial Hospital Heliport

Closest forecast is Northeast Philadelphia Airport, 5.5 nm (10.2 km) ESE. Retrieved 2022/01/22 18:36 UTC (1 hour ago):

TAF KPNE 221733Z 2218/2318 VRB03KT P6SM SCT200 FM230600 25005KT P6SM SCT200 FM231400 26009KT P6SM SCT120 BKN200